KFAM/FAM METAR and TAF weather

Enter ICAO airport designator
Station Type Date Time Source
KFAM METAR 2019/08/22 15:00 UTC NOAA

KFAM 221500Z AUTO 00000KT 10SM -RA SCT018 SCT029 OVC034 22/21 A3005 RMK AO2 LTG DSNT E AND SE TSE1458 P0000


Station Type Date Time Source
KFAM Decoded METAR 2019/08/22 15:00 UTC NOAA

Station name not available
Aug 22, 2019 - 11:00 AM EDT / 2019.08.22 1500 UTC
Wind: Calm:0
Visibility: 10 mile(s):0
Sky conditions: overcast
Weather: light rain; Lightning observed
Precipitation last hour: A trace
Temperature: 71 F (22 C)
Dew Point: 69 F (21 C)
Relative Humidity: 94%
Pressure (altimeter): 30.05 in. Hg (1017 hPa)
ob: KFAM 221500Z AUTO 00000KT 10SM -RA SCT018 SCT029 OVC034 22/21 A3005 RMK AO2 LTG DSNT E AND SE TSE1458 P0000
cycle: 15

Station Type Date Time Source
KFAM TAF UTC NOAA

Error!

Example: see airport list